Time;durP1;ratioP1;P1;durP2;ratioP2;P2;SDS_P1;SDS_P2;PMS_P1;PMS_P2;Temp;Humidity;BMP_temperature;BMP_pressure;BME280_temperature;BME280_humidity;BME280_pressure;Samples;Min_cycle;Max_cycle;Signal;HPM_P1;HPM_P2
2022/09/14 00:01:16;;;;;;;3.38;1.52;;;21.10;99.90;;;;;;5092538;28;20220;-58
2022/09/14 00:03:42;;;;;;;4.45;1.40;;;21.20;99.90;;;;;;5092952;28;20201;-59
2022/09/14 00:06:11;;;;;;;2.00;1.50;;;21.10;99.90;;;;;;5095790;28;20208;-58
2022/09/14 00:08:39;;;;;;;2.95;1.30;;;21.20;99.90;;;;;;5095634;28;20295;-61
2022/09/14 00:11:08;;;;;;;2.88;1.30;;;21.20;99.90;;;;;;5095632;28;20680;-58
2022/09/14 00:13:36;;;;;;;5.38;1.50;;;21.30;99.90;;;;;;5095638;28;20219;-59
2022/09/14 00:16:04;;;;;;;3.35;1.45;;;21.40;99.90;;;;;;5095540;28;20215;-58
2022/09/14 00:18:33;;;;;;;3.97;1.58;;;21.30;99.90;;;;;;5095362;28;20204;-59
2022/09/14 00:21:00;;;;;;;2.05;1.30;;;21.40;99.90;;;;;;5095339;28;20548;-59
2022/09/14 00:23:28;;;;;;;1.73;1.35;;;21.40;99.90;;;;;;5094954;28;20772;-61
2022/09/14 00:25:55;;;;;;;3.05;1.48;;;21.40;99.90;;;;;;5095278;28;20204;-59
2022/09/14 00:28:22;;;;;;;2.50;1.40;;;21.40;99.90;;;;;;5095166;28;20208;-59
2022/09/14 00:30:49;;;;;;;4.45;1.50;;;21.50;99.90;;;;;;5094899;28;20202;-59
2022/09/14 00:33:15;;;;;;;3.25;1.52;;;21.50;99.90;;;;;;5094970;28;20231;-58
2022/09/14 00:35:44;;;;;;;1.80;1.20;;;21.50;99.90;;;;;;5094747;28;20216;-57
2022/09/14 00:38:10;;;;;;;2.38;1.35;;;21.60;99.90;;;;;;5094720;28;20208;-60
2022/09/14 00:40:37;;;;;;;3.30;1.60;;;21.70;99.90;;;;;;5095016;28;20251;-58
2022/09/14 00:43:13;;;;;;;3.03;1.50;;;21.80;99.90;;;;;;5094999;28;20228;-58
2022/09/14 00:45:40;;;;;;;2.05;1.20;;;21.90;99.90;;;;;;5094812;28;20646;-58
2022/09/14 00:48:08;;;;;;;4.70;1.20;;;21.90;99.90;;;;;;5095029;28;20200;-59
2022/09/14 00:50:34;;;;;;;3.42;1.33;;;21.90;99.90;;;;;;5094992;28;20219;-59
2022/09/14 00:53:04;;;;;;;3.25;1.38;;;21.80;99.90;;;;;;5094580;28;20228;-59
2022/09/14 00:55:31;;;;;;;2.13;1.40;;;21.80;99.90;;;;;;5094710;28;20676;-59
2022/09/14 00:57:58;;;;;;;1.60;1.50;;;21.80;99.90;;;;;;5094659;28;20204;-58
2022/09/14 01:00:27;;;;;;;2.90;1.40;;;21.80;99.90;;;;;;5094761;28;20225;-59
2022/09/14 01:02:54;;;;;;;4.13;1.50;;;21.80;99.90;;;;;;5095142;28;20220;-58
2022/09/14 01:05:30;;;;;;;3.28;1.60;;;21.80;99.90;;;;;;5094843;28;20698;-59
2022/09/14 01:08:22;;;;;;;1.58;1.20;;;21.90;99.90;;;;;;5094655;28;20393;-59
2022/09/14 01:11:05;;;;;;;4.10;1.58;;;22.00;99.90;;;;;;5094537;28;20208;-59
2022/09/14 01:13:40;;;;;;;4.35;1.45;;;22.00;99.90;;;;;;5094479;28;20246;-59
2022/09/14 01:16:15;;;;;;;3.20;1.52;;;22.00;99.90;;;;;;5094544;28;20208;-59
2022/09/14 01:18:46;;;;;;;2.00;1.30;;;22.10;99.90;;;;;;5094107;28;20659;-58
2022/09/14 01:21:16;;;;;;;4.22;1.50;;;22.10;99.90;;;;;;5094335;28;20231;-59
2022/09/14 01:23:49;;;;;;;4.93;1.35;;;22.10;99.90;;;;;;5094125;28;20201;-59
2022/09/14 01:26:46;;;;;;;4.22;1.40;;;22.10;99.90;;;;;;5094232;28;20214;-59
2022/09/14 01:29:18;;;;;;;3.08;1.52;;;22.00;99.90;;;;;;5091254;28;20577;-58
2022/09/14 01:31:51;;;;;;;2.03;1.30;;;22.00;99.90;;;;;;5094019;28;20312;-59
2022/09/14 01:34:26;;;;;;;4.10;1.58;;;21.90;99.90;;;;;;5093975;28;20215;-58
2022/09/14 01:36:57;;;;;;;1.60;1.17;;;22.00;99.90;;;;;;5093728;28;20667;-58
2022/09/14 01:39:24;;;;;;;1.30;1.20;;;22.00;99.90;;;;;;5093674;28;20208;-57
2022/09/14 01:41:54;;;;;;;2.63;1.45;;;22.00;99.90;;;;;;5093419;28;20239;-60
2022/09/14 01:44:25;;;;;;;18.40;3.33;;;22.10;99.90;;;;;;5093706;28;20219;-58
2022/09/14 01:46:57;;;;;;;23.98;6.45;;;22.10;99.90;;;;;;5093566;28;20223;-58
2022/09/14 01:49:31;;;;;;;10.90;3.78;;;22.20;99.90;;;;;;5093494;28;20208;-58
2022/09/14 01:52:03;;;;;;;8.43;3.05;;;22.00;99.90;;;;;;5093599;28;20220;-61
2022/09/14 01:54:33;;;;;;;6.97;2.33;;;21.60;99.90;;;;;;5094337;28;20231;-59
2022/09/14 01:57:04;;;;;;;5.68;2.40;;;21.40;99.90;;;;;;5094836;28;20204;-59
2022/09/14 01:59:36;;;;;;;3.58;2.10;;;21.20;99.90;;;;;;5094456;28;20208;-58
2022/09/14 02:02:07;;;;;;;4.60;2.35;;;21.10;99.90;;;;;;5094064;28;20236;-57
2022/09/14 02:04:39;;;;;;;6.22;2.60;;;21.10;99.90;;;;;;5093624;28;20208;-59
2022/09/14 02:07:06;;;;;;;4.65;2.47;;;21.00;99.90;;;;;;5093848;28;20208;-59
2022/09/14 02:09:33;;;;;;;5.50;2.53;;;20.80;99.90;;;;;;5093559;28;20204;-59
2022/09/14 02:12:00;;;;;;;5.70;2.60;;;20.70;99.90;;;;;;5093550;28;20232;-59
2022/09/14 02:14:28;;;;;;;10.27;2.70;;;20.60;99.90;;;;;;5093843;28;20667;-58
2022/09/14 02:16:57;;;;;;;4.80;2.67;;;20.50;99.90;;;;;;5093253;28;20222;-58
2022/09/14 02:19:28;;;;;;;6.57;2.50;;;20.50;99.90;;;;;;5093591;28;20211;-59
2022/09/14 02:21:55;;;;;;;9.70;2.85;;;20.40;99.90;;;;;;5095166;28;20232;-59
2022/09/14 02:24:22;;;;;;;6.03;2.33;;;20.50;99.90;;;;;;5094861;28;20199;-59
2022/09/14 02:26:51;;;;;;;5.00;1.98;;;20.50;99.90;;;;;;5094779;28;20200;-59
2022/09/14 02:29:17;;;;;;;10.30;7.15;;;20.50;99.90;;;;;;5094183;28;20209;-58
2022/09/14 02:32:03;;;;;;;4.95;2.67;;;20.50;99.90;;;;;;5093398;28;20224;-59
2022/09/14 02:34:37;;;;;;;5.03;2.80;;;20.50;99.90;;;;;;5093619;28;20589;-58
2022/09/14 02:37:11;;;;;;;9.15;4.32;;;20.50;99.90;;;;;;5093363;28;20223;-59
2022/09/14 02:39:46;;;;;;;2.97;2.15;;;20.50;99.90;;;;;;5092749;28;20299;-58
2022/09/14 02:42:22;;;;;;;3.13;2.08;;;20.40;99.90;;;;;;5092621;28;20309;-59
2022/09/14 02:44:58;;;;;;;7.10;2.75;;;20.20;99.90;;;;;;5093130;28;20223;-60
2022/09/14 02:47:34;;;;;;;7.78;3.20;;;20.10;99.90;;;;;;5093095;28;20275;-59
2022/09/14 02:50:09;;;;;;;5.28;2.42;;;20.20;99.90;;;;;;5092619;28;20204;-59
2022/09/14 02:52:43;;;;;;;3.53;2.53;;;20.10;99.90;;;;;;5092955;28;20220;-59
2022/09/14 02:55:14;;;;;;;5.07;2.95;;;20.10;99.90;;;;;;5092937;28;20704;-59
2022/09/14 02:58:01;;;;;;;6.85;3.90;;;20.20;99.90;;;;;;5092581;28;20204;-59
2022/09/14 03:00:29;;;;;;;5.55;3.25;;;20.20;99.90;;;;;;5092731;28;20204;-59
2022/09/14 03:02:58;;;;;;;9.65;5.10;;;20.30;99.90;;;;;;5092461;28;20320;-58
2022/09/14 03:05:26;;;;;;;4.78;3.15;;;20.30;99.90;;;;;;5092617;28;20233;-58
2022/09/14 03:07:53;;;;;;;5.35;2.92;;;20.30;99.90;;;;;;5092491;28;20553;-58
2022/09/14 03:10:19;;;;;;;4.32;2.50;;;20.30;99.90;;;;;;5092866;28;20209;-59
2022/09/14 03:12:46;;;;;;;6.10;2.80;;;20.30;99.90;;;;;;5092199;28;20228;-57
2022/09/14 03:15:13;;;;;;;4.47;2.47;;;20.20;99.90;;;;;;5092384;28;20210;-59
2022/09/14 03:17:44;;;;;;;4.60;3.40;;;20.20;99.90;;;;;;5092144;28;20269;-59
2022/09/14 03:20:13;;;;;;;5.93;2.90;;;20.10;99.90;;;;;;5092079;28;20216;-59
2022/09/14 03:22:40;;;;;;;5.25;2.53;;;20.20;99.90;;;;;;5092215;28;20231;-59
2022/09/14 03:25:08;;;;;;;5.93;2.85;;;20.20;99.90;;;;;;5092349;28;20210;-58
2022/09/14 03:27:35;;;;;;;9.80;5.85;;;20.10;99.90;;;;;;5092372;28;20208;-57
2022/09/14 03:30:01;;;;;;;8.63;6.43;;;20.20;99.90;;;;;;5092079;28;20203;-59
2022/09/14 03:32:28;;;;;;;5.80;2.65;;;20.20;99.90;;;;;;5092324;28;20220;-59
2022/09/14 03:34:56;;;;;;;7.72;2.97;;;20.20;99.90;;;;;;5092740;28;20594;-59
2022/09/14 03:37:24;;;;;;;7.15;3.03;;;20.20;99.90;;;;;;5092447;28;20293;-58
2022/09/14 03:39:51;;;;;;;26.33;22.98;;;20.30;99.90;;;;;;5094521;28;20624;-59
2022/09/14 03:42:18;;;;;;;10.85;8.40;;;20.30;99.90;;;;;;5095945;28;20251;-59
2022/09/14 03:44:45;;;;;;;7.88;3.80;;;20.30;99.90;;;;;;5095870;28;20206;-58
2022/09/14 03:47:12;;;;;;;7.05;2.70;;;20.20;99.90;;;;;;5095918;28;20672;-59
2022/09/14 03:49:39;;;;;;;4.95;3.10;;;20.30;99.90;;;;;;5095855;28;20207;-59
2022/09/14 03:52:05;;;;;;;4.22;2.95;;;20.30;99.90;;;;;;5095878;28;20220;-58
2022/09/14 03:54:34;;;;;;;5.18;2.78;;;20.40;99.90;;;;;;5095935;28;20287;-58
2022/09/14 03:57:00;;;;;;;6.07;3.90;;;20.30;99.90;;;;;;5095838;28;20211;-59
2022/09/14 03:59:27;;;;;;;2.85;2.15;;;20.40;99.90;;;;;;5095529;28;20220;-58
2022/09/14 04:01:54;;;;;;;4.55;2.50;;;20.40;99.90;;;;;;5095974;28;20234;-59
2022/09/14 04:04:21;;;;;;;6.13;2.95;;;20.40;99.90;;;;;;5096132;28;20231;-59
2022/09/14 04:06:48;;;;;;;4.25;2.90;;;20.30;99.90;;;;;;5096509;28;20572;-58
2022/09/14 04:09:15;;;;;;;3.20;2.55;;;20.30;99.90;;;;;;5095362;28;20588;-59
2022/09/14 04:11:43;;;;;;;4.53;2.80;;;20.20;99.90;;;;;;5095331;28;20231;-59
2022/09/14 04:14:10;;;;;;;3.50;2.50;;;20.10;99.90;;;;;;5095437;28;20212;-59
2022/09/14 04:16:37;;;;;;;5.97;3.13;;;20.00;99.90;;;;;;5095770;28;20201;-59
2022/09/14 04:19:04;;;;;;;5.50;2.85;;;20.00;99.90;;;;;;5095558;28;20303;-59
2022/09/14 04:21:30;;;;;;;4.63;3.00;;;19.90;99.90;;;;;;5095962;28;20720;-59
2022/09/14 04:23:58;;;;;;;5.30;3.00;;;19.90;99.90;;;;;;5096055;28;20601;-59
2022/09/14 04:26:26;;;;;;;4.57;2.55;;;19.80;99.90;;;;;;5095479;28;20211;-58
2022/09/14 04:28:55;;;;;;;4.75;2.83;;;19.60;99.90;;;;;;5095523;28;20205;-59
2022/09/14 04:31:22;;;;;;;5.47;2.85;;;19.60;99.90;;;;;;5095367;28;20265;-59
2022/09/14 04:33:50;;;;;;;3.65;2.42;;;19.70;99.90;;;;;;5095257;28;20211;-59
2022/09/14 04:36:19;;;;;;;7.82;2.70;;;19.70;99.90;;;;;;5095628;28;20684;-59
2022/09/14 04:38:46;;;;;;;5.38;2.72;;;19.60;99.90;;;;;;5095281;28;20204;-60
2022/09/14 04:41:15;;;;;;;3.10;2.50;;;19.70;99.90;;;;;;5095171;28;20247;-59
2022/09/14 04:43:43;;;;;;;4.18;2.42;;;19.60;99.90;;;;;;5095902;28;20204;-59
2022/09/14 04:46:14;;;;;;;4.25;2.30;;;19.50;99.90;;;;;;5095736;28;20207;-60
2022/09/14 04:48:41;;;;;;;3.95;2.40;;;19.50;99.90;;;;;;5095976;28;20587;-59
2022/09/14 04:51:10;;;;;;;5.38;2.55;;;19.50;99.90;;;;;;5095705;28;20204;-59
2022/09/14 04:53:38;;;;;;;2.65;2.28;;;19.50;99.90;;;;;;5095443;28;20246;-59
2022/09/14 04:56:07;;;;;;;3.72;2.47;;;19.70;99.90;;;;;;5095566;28;20258;-59
2022/09/14 04:58:34;;;;;;;4.05;2.58;;;19.80;99.90;;;;;;5095710;28;20211;-59
2022/09/14 05:01:01;;;;;;;3.97;2.55;;;19.80;99.90;;;;;;5095517;28;20208;-60
2022/09/14 05:03:30;;;;;;;6.05;3.97;;;19.80;99.90;;;;;;5095348;28;20226;-60
2022/09/14 05:06:01;;;;;;;5.43;2.70;;;19.90;99.90;;;;;;5095782;28;20699;-59
2022/09/14 05:08:28;;;;;;;7.18;2.75;;;19.90;99.90;;;;;;5095682;28;20299;-60
2022/09/14 05:10:55;;;;;;;3.03;2.30;;;19.80;99.90;;;;;;5096247;28;20619;-60
2022/09/14 05:13:23;;;;;;;3.53;2.20;;;19.80;99.90;;;;;;5091893;22;20296;-58
2022/09/14 05:15:49;;;;;;;4.78;3.15;;;19.90;99.90;;;;;;5071850;28;20296;-58
2022/09/14 05:18:16;;;;;;;4.55;2.65;;;20.00;99.90;;;;;;5073029;28;20695;-59
2022/09/14 05:20:44;;;;;;;4.10;2.33;;;20.20;99.90;;;;;;5073299;28;20217;-59
2022/09/14 05:23:11;;;;;;;5.03;2.38;;;20.30;99.90;;;;;;5073425;28;20236;-59
2022/09/14 05:25:38;;;;;;;6.15;2.53;;;20.40;99.90;;;;;;5073461;28;20282;-60
2022/09/14 05:28:05;;;;;;;4.85;3.00;;;20.30;99.90;;;;;;5073103;28;20595;-59
2022/09/14 05:30:31;;;;;;;4.65;3.10;;;20.00;99.90;;;;;;5072930;28;20695;-59
2022/09/14 05:32:58;;;;;;;3.63;2.83;;;19.80;99.90;;;;;;5072842;28;20229;-59
2022/09/14 05:35:25;;;;;;;4.30;3.10;;;19.80;99.90;;;;;;5072838;28;20250;-59
2022/09/14 05:37:53;;;;;;;5.13;3.15;;;19.80;99.90;;;;;;5073070;28;20235;-59
2022/09/14 05:40:19;;;;;;;5.35;3.13;;;19.80;99.90;;;;;;5072581;28;20575;-59
2022/09/14 05:42:46;;;;;;;7.00;2.85;;;19.80;99.90;;;;;;5072725;28;20232;-59
2022/09/14 05:45:12;;;;;;;10.30;3.58;;;20.00;99.90;;;;;;5072806;28;20209;-59
2022/09/14 05:47:39;;;;;;;6.28;3.65;;;20.10;99.90;;;;;;5072606;28;20212;-59
2022/09/14 05:50:07;;;;;;;4.50;3.40;;;20.40;99.90;;;;;;5072587;28;20205;-58
2022/09/14 05:52:34;;;;;;;3.13;2.83;;;20.50;99.90;;;;;;5072653;28;20662;-59
2022/09/14 05:55:03;;;;;;;5.13;3.35;;;20.70;99.90;;;;;;5072289;28;20216;-62
2022/09/14 05:57:30;;;;;;;4.07;3.30;;;20.80;99.90;;;;;;5072935;28;20215;-59
2022/09/14 05:59:57;;;;;;;8.23;3.10;;;20.90;99.90;;;;;;5072054;28;20208;-59
2022/09/14 06:02:23;;;;;;;4.90;3.45;;;21.00;99.90;;;;;;5071694;28;20259;-58
2022/09/14 06:04:50;;;;;;;18.08;12.70;;;21.00;99.90;;;;;;5072542;28;20208;-59
2022/09/14 06:07:16;;;;;;;5.85;3.42;;;21.10;99.90;;;;;;5072311;28;20209;-59
2022/09/14 06:09:43;;;;;;;6.30;3.22;;;21.10;99.90;;;;;;5072234;28;20205;-59
2022/09/14 06:12:13;;;;;;;5.07;3.22;;;21.20;99.90;;;;;;5072171;28;20240;-60
2022/09/14 06:14:40;;;;;;;5.05;3.22;;;21.40;99.90;;;;;;5072070;28;20687;-59
2022/09/14 06:17:06;;;;;;;5.30;3.15;;;21.50;99.90;;;;;;5072374;28;20292;-59
2022/09/14 06:19:33;;;;;;;4.30;3.30;;;21.60;99.90;;;;;;5071779;28;20212;-59
2022/09/14 06:22:00;;;;;;;8.52;4.50;;;21.70;99.90;;;;;;5072189;28;20644;-59
2022/09/14 06:24:27;;;;;;;3.72;2.85;;;21.80;99.90;;;;;;5072330;28;20205;-59
2022/09/14 06:26:54;;;;;;;7.10;3.20;;;22.00;99.90;;;;;;5072133;28;20208;-59
2022/09/14 06:29:22;;;;;;;6.72;3.10;;;22.20;99.90;;;;;;5071848;28;20234;-59
2022/09/14 06:31:48;;;;;;;3.97;2.72;;;22.50;99.90;;;;;;5071985;28;20695;-59
2022/09/14 06:34:15;;;;;;;6.57;2.88;;;23.00;99.90;;;;;;5072219;28;20278;-59
2022/09/14 06:36:42;;;;;;;4.40;2.80;;;23.30;99.90;;;;;;5072390;28;20209;-59
2022/09/14 06:39:08;;;;;;;3.13;2.83;;;23.50;99.90;;;;;;5071825;28;20208;-59
2022/09/14 06:41:35;;;;;;;5.30;3.00;;;23.50;99.90;;;;;;5072285;28;20217;-59
2022/09/14 06:44:03;;;;;;;4.63;3.65;;;23.40;99.90;;;;;;5071860;28;20275;-60
2022/09/14 06:46:33;;;;;;;4.60;2.90;;;23.30;99.90;;;;;;5071931;28;20208;-58
2022/09/14 06:49:02;;;;;;;5.25;2.72;;;23.30;99.90;;;;;;5071854;28;20204;-58
2022/09/14 06:51:31;;;;;;;3.53;2.55;;;23.40;99.90;;;;;;5071688;28;20208;-59
2022/09/14 06:53:59;;;;;;;4.60;2.83;;;23.40;99.90;;;;;;5071794;28;20217;-59
2022/09/14 06:56:26;;;;;;;3.60;2.20;;;23.50;99.90;;;;;;5071617;28;20215;-58
2022/09/14 06:58:53;;;;;;;7.28;2.58;;;23.70;99.90;;;;;;5071768;28;20205;-59
2022/09/14 07:01:21;;;;;;;3.53;2.42;;;23.80;99.90;;;;;;5071908;28;20205;-59
2022/09/14 07:03:51;;;;;;;4.57;2.70;;;23.80;99.90;;;;;;5072051;28;20225;-60
2022/09/14 07:06:19;;;;;;;4.90;2.40;;;23.90;99.90;;;;;;5071833;28;20212;-59
2022/09/14 07:08:47;;;;;;;5.00;2.70;;;23.90;99.90;;;;;;5071323;28;20664;-60
2022/09/14 07:11:16;;;;;;;4.90;2.70;;;23.90;99.90;;;;;;5071705;28;20725;-59
2022/09/14 07:13:43;;;;;;;4.32;2.63;;;23.90;99.90;;;;;;5073899;28;20315;-59
2022/09/14 07:16:11;;;;;;;6.72;2.55;;;23.90;99.90;;;;;;5075797;28;20680;-59
2022/09/14 07:18:38;;;;;;;7.38;3.13;;;24.10;99.90;;;;;;5075471;28;20328;-59
2022/09/14 07:21:08;;;;;;;5.68;2.70;;;24.20;99.90;;;;;;5075806;28;20212;-59
2022/09/14 07:23:37;;;;;;;5.63;2.50;;;24.40;99.90;;;;;;5075512;28;20255;-59
2022/09/14 07:26:06;;;;;;;5.95;2.40;;;24.60;99.90;;;;;;5075732;28;20742;-60
2022/09/14 07:28:34;;;;;;;2.83;2.17;;;25.10;99.90;;;;;;5075740;28;20631;-60
2022/09/14 07:31:01;;;;;;;5.68;2.38;;;25.90;99.90;;;;;;5075509;28;20224;-59
2022/09/14 07:33:28;;;;;;;3.70;2.20;;;26.70;99.90;;;;;;5075358;28;20594;-60
2022/09/14 07:35:55;;;;;;;5.40;2.25;;;27.20;99.90;;;;;;5075411;28;20232;-59
2022/09/14 07:38:23;;;;;;;4.88;2.00;;;27.40;99.90;;;;;;5075401;28;20238;-59
2022/09/14 07:40:49;;;;;;;6.95;2.33;;;27.60;99.90;;;;;;5075539;28;20216;-60
2022/09/14 07:43:16;;;;;;;4.28;2.28;;;27.70;99.90;;;;;;5075144;28;20236;-59
2022/09/14 07:45:43;;;;;;;3.10;2.13;;;27.70;99.90;;;;;;5075691;28;20205;-60
2022/09/14 07:48:09;;;;;;;6.15;2.10;;;27.80;99.90;;;;;;5075288;28;20201;-56
2022/09/14 07:50:36;;;;;;;4.72;2.10;;;28.10;99.90;;;;;;5074774;28;20209;-57
2022/09/14 07:53:03;;;;;;;3.92;2.15;;;28.50;99.90;;;;;;5075143;28;20233;-56
2022/09/14 07:55:31;;;;;;;9.25;2.17;;;28.80;99.90;;;;;;5075127;28;20208;-57
2022/09/14 07:57:58;;;;;;;4.10;2.42;;;28.90;99.90;;;;;;5074872;28;20252;-56
2022/09/14 08:00:25;;;;;;;3.63;2.25;;;28.90;99.90;;;;;;5074864;28;20669;-56
2022/09/14 08:02:52;;;;;;;3.40;2.33;;;28.80;99.90;;;;;;5074720;28;20315;-56
2022/09/14 08:05:19;;;;;;;3.47;2.28;;;28.70;99.90;;;;;;5074716;28;20228;-56
2022/09/14 08:07:46;;;;;;;4.03;2.00;;;28.50;99.90;;;;;;5074640;28;20299;-56
2022/09/14 08:10:13;;;;;;;4.13;1.98;;;28.30;99.90;;;;;;5074567;28;20258;-56
2022/09/14 08:12:41;;;;;;;4.60;2.05;;;28.30;99.90;;;;;;5074368;28;20241;-56
2022/09/14 08:15:09;;;;;;;3.83;2.67;;;28.30;99.90;;;;;;5074599;28;20255;-57
2022/09/14 08:17:36;;;;;;;4.60;2.05;;;28.30;99.90;;;;;;5074195;28;20321;-56
2022/09/14 08:20:03;;;;;;;3.60;1.90;;;28.10;99.90;;;;;;5074418;28;20217;-56
2022/09/14 08:22:30;;;;;;;7.50;2.30;;;28.00;99.90;;;;;;5074185;28;20228;-56
2022/09/14 08:24:56;;;;;;;3.88;1.90;;;27.80;99.90;;;;;;5073492;28;20252;-56
2022/09/14 08:27:23;;;;;;;4.93;2.03;;;27.70;99.90;;;;;;5074147;28;20204;-56
2022/09/14 08:29:51;;;;;;;5.78;2.38;;;27.60;99.90;;;;;;5073722;28;20585;-56
2022/09/14 08:32:18;;;;;;;7.55;2.30;;;27.50;99.90;;;;;;5073880;28;20229;-56
2022/09/14 08:34:44;;;;;;;5.68;2.20;;;27.40;99.90;;;;;;5074365;28;20243;-56
2022/09/14 08:37:11;;;;;;;6.00;2.10;;;27.40;99.90;;;;;;5073929;28;20204;-59
2022/09/14 08:39:38;;;;;;;4.28;1.95;;;27.20;99.90;;;;;;5073835;28;20211;-59
2022/09/14 08:42:05;;;;;;;6.10;2.33;;;27.10;99.90;;;;;;5073973;28;20598;-59
2022/09/14 08:44:40;;;;;;;5.60;2.10;;;27.00;99.90;;;;;;5073978;28;20279;-59
2022/09/14 08:47:13;;;;;;;4.07;2.10;;;26.90;99.90;;;;;;5074112;28;20200;-59
2022/09/14 08:49:46;;;;;;;2.88;2.05;;;27.00;99.90;;;;;;5073870;28;20240;-59
2022/09/14 08:52:22;;;;;;;4.95;2.67;;;27.20;99.90;;;;;;5074000;28;20225;-59
2022/09/14 08:54:52;;;;;;;6.60;1.90;;;27.40;99.90;;;;;;5073966;28;20295;-59
2022/09/14 08:57:27;;;;;;;8.23;2.40;;;27.60;99.90;;;;;;5073714;28;20296;-58
2022/09/14 09:00:02;;;;;;;6.93;2.15;;;27.60;99.90;;;;;;5073444;28;20683;-58
2022/09/14 09:03:03;;;;;;;6.47;2.60;;;27.60;99.90;;;;;;5073687;28;20228;-57
2022/09/14 09:05:37;;;;;;;3.78;2.10;;;27.60;99.90;;;;;;5073582;28;20668;-56
2022/09/14 09:08:13;;;;;;;5.95;2.50;;;27.70;99.90;;;;;;5073978;28;20228;-57
2022/09/14 09:10:40;;;;;;;4.10;2.08;;;27.80;99.90;;;;;;5073507;28;20212;-58
2022/09/14 09:13:13;;;;;;;5.20;1.90;;;28.10;99.90;;;;;;5073449;28;20233;-57
2022/09/14 09:15:44;;;;;;;3.60;2.20;;;28.40;99.90;;;;;;5073570;28;20216;-57
2022/09/14 09:18:18;;;;;;;3.17;1.98;;;28.80;99.90;;;;;;5074037;28;20642;-58
2022/09/14 09:20:47;;;;;;;4.97;1.98;;;29.10;99.90;;;;;;5073720;28;20207;-57
2022/09/14 09:23:17;;;;;;;3.47;1.98;;;29.30;99.90;;;;;;5073468;28;20229;-57
2022/09/14 09:25:55;;;;;;;7.78;1.90;;;29.30;99.90;;;;;;5073745;28;20603;-56
2022/09/14 09:28:23;;;;;;;4.80;1.70;;;29.40;99.90;;;;;;5073341;28;20208;-57
2022/09/14 09:30:50;;;;;;;6.30;2.40;;;29.40;99.90;;;;;;5073351;28;20201;-57
2022/09/14 09:33:22;;;;;;;7.13;1.80;;;29.50;99.90;;;;;;5073449;28;20232;-56
2022/09/14 09:35:49;;;;;;;5.85;2.30;;;29.50;99.90;;;;;;5072922;28;20255;-57
2022/09/14 09:38:17;;;;;;;4.20;2.00;;;29.40;99.90;;;;;;5072634;28;20208;-58
2022/09/14 09:40:49;;;;;;;3.53;2.08;;;29.30;99.90;;;;;;5072868;28;20231;-56
2022/09/14 09:43:18;;;;;;;3.55;1.92;;;29.20;99.90;;;;;;5073245;28;20221;-57
2022/09/14 09:45:57;;;;;;;3.50;2.13;;;29.30;99.90;;;;;;5072906;28;20243;-57
2022/09/14 09:48:29;;;;;;;6.68;2.58;;;29.40;99.90;;;;;;5072981;28;20228;-56
2022/09/14 09:51:03;;;;;;;5.95;2.22;;;29.30;99.90;;;;;;5072883;28;20212;-56
2022/09/14 09:53:31;;;;;;;4.97;2.20;;;29.40;99.90;;;;;;5072661;28;20229;-56
2022/09/14 09:55:57;;;;;;;5.70;2.30;;;29.50;99.90;;;;;;5072776;28;20212;-56
2022/09/14 09:58:31;;;;;;;4.13;2.10;;;29.30;99.90;;;;;;5072568;28;20527;-57
2022/09/14 10:00:59;;;;;;;3.85;2.30;;;29.00;99.90;;;;;;5072678;28;20209;-58
2022/09/14 10:03:31;;;;;;;6.72;2.55;;;29.10;99.90;;;;;;5072640;28;20277;-58
2022/09/14 10:06:08;;;;;;;3.60;2.10;;;29.20;99.90;;;;;;5072329;28;20216;-58
2022/09/14 10:08:41;;;;;;;4.57;2.80;;;29.40;99.90;;;;;;5072455;28;20212;-57
2022/09/14 10:11:28;;;;;;;5.40;2.17;;;29.60;99.90;;;;;;5072803;28;20201;-57
2022/09/14 10:13:56;;;;;;;7.00;2.22;;;29.90;99.90;;;;;;5072498;28;20348;-57
2022/09/14 10:16:25;;;;;;;5.88;2.33;;;30.10;99.90;;;;;;5072221;28;20209;-58
2022/09/14 10:18:54;;;;;;;4.43;2.35;;;30.20;99.90;;;;;;5072221;28;20488;-57
2022/09/14 10:21:21;;;;;;;6.95;2.35;;;30.20;99.90;;;;;;5072299;28;20201;-57
2022/09/14 10:24:03;;;;;;;2.75;1.80;;;30.30;99.90;;;;;;5072079;28;20644;-56
2022/09/14 10:26:36;;;;;;;3.30;1.92;;;30.40;99.90;;;;;;5071881;28;20213;-57
2022/09/14 10:29:34;;;;;;;5.72;3.03;;;30.30;99.90;;;;;;5071839;28;20193;-57
2022/09/14 10:32:06;;;;;;;5.03;1.90;;;30.30;99.90;;;;;;5067436;28;20246;-57
2022/09/14 10:34:34;;;;;;;3.92;1.70;;;30.10;99.90;;;;;;5072021;28;20201;-56
2022/09/14 10:37:17;;;;;;;5.75;1.80;;;29.80;99.90;;;;;;5071926;28;20212;-57
2022/09/14 10:39:50;;;;;;;4.28;1.70;;;29.50;99.90;;;;;;5071917;28;20263;-56
2022/09/14 10:42:26;;;;;;;3.90;1.92;;;29.40;99.90;;;;;;5071828;28;20282;-56
2022/09/14 10:45:05;;;;;;;3.42;1.50;;;29.30;99.90;;;;;;5071739;28;20228;-57
2022/09/14 10:47:59;;;;;;;6.68;1.60;;;29.40;99.90;;;;;;5071301;28;20209;-57
2022/09/14 10:50:41;;;;;;;7.60;1.80;;;29.70;99.90;;;;;;5069322;28;20298;-57
2022/09/14 10:53:19;;;;;;;6.20;1.70;;;29.90;99.90;;;;;;5071470;28;20351;-57
2022/09/14 10:55:53;;;;;;;5.00;1.60;;;30.00;99.90;;;;;;5071661;28;20205;-57
2022/09/14 10:58:34;;;;;;;4.30;1.45;;;30.20;99.90;;;;;;5071909;28;20531;-57
2022/09/14 11:01:13;;;;;;;4.22;1.40;;;30.40;99.90;;;;;;5071539;28;20215;-56
2022/09/14 11:03:51;;;;;;;4.43;1.60;;;30.50;99.90;;;;;;5071583;28;20228;-58
2022/09/14 11:06:32;;;;;;;5.22;1.60;;;30.60;99.90;;;;;;5071926;28;20204;-54
2022/09/14 11:09:02;;;;;;;4.10;1.63;;;30.80;99.90;;;;;;5071234;28;20733;-54
2022/09/14 11:11:40;;;;;;;3.50;1.58;;;30.90;99.90;;;;;;5071815;28;20208;-56
2022/09/14 11:14:23;;;;;;;4.43;1.50;;;30.80;99.90;;;;;;5072018;28;20236;-56
2022/09/14 11:17:03;;;;;;;3.40;1.50;;;30.70;99.90;;;;;;5071196;28;20560;-56
2022/09/14 11:19:39;;;;;;;5.53;1.50;;;30.50;99.90;;;;;;5071346;28;20215;-56
2022/09/14 11:22:13;;;;;;;6.60;2.40;;;30.40;99.90;;;;;;5071620;28;20228;-55
2022/09/14 11:24:44;;;;;;;7.75;1.80;;;30.50;99.90;;;;;;5071235;28;20232;-55
2022/09/14 11:27:18;;;;;;;3.92;1.60;;;30.70;99.90;;;;;;5071417;28;20303;-56
2022/09/14 11:29:49;;;;;;;2.22;1.30;;;30.90;99.90;;;;;;5071299;28;20205;-56
2022/09/14 11:32:21;;;;;;;3.05;1.23;;;31.20;99.90;;;;;;5071597;28;20225;-56
2022/09/14 11:34:53;;;;;;;2.22;1.50;;;31.60;99.90;;;;;;5071432;28;20197;-56
2022/09/14 11:37:26;;;;;;;3.22;1.40;;;31.80;99.90;;;;;;5071168;28;20209;-56
2022/09/14 11:40:06;;;;;;;2.78;1.40;;;31.70;99.90;;;;;;5070772;28;20571;-55
2022/09/14 11:42:37;;;;;;;2.95;1.50;;;31.70;99.80;;;;;;5071180;28;20256;-55
2022/09/14 11:45:13;;;;;;;3.45;1.50;;;31.70;99.60;;;;;;5071018;28;20314;-55
2022/09/14 11:47:49;;;;;;;4.35;1.60;;;31.70;98.80;;;;;;5071087;28;20209;-55
2022/09/14 11:50:19;;;;;;;4.50;1.60;;;31.50;98.90;;;;;;5070656;28;20575;-55
2022/09/14 11:52:51;;;;;;;2.10;1.38;;;31.60;99.30;;;;;;5071289;28;20253;-55
2022/09/14 11:55:19;;;;;;;4.30;1.33;;;31.70;99.00;;;;;;5071038;28;20216;-56
2022/09/14 11:57:47;;;;;;;2.72;1.40;;;31.80;98.80;;;;;;5071345;28;20205;-56
2022/09/14 12:00:47;;;;;;;4.20;2.15;;;31.80;98.40;;;;;;5072247;28;20205;-56
2022/09/14 12:03:17;;;;;;;6.28;4.78;;;31.90;98.40;;;;;;5074899;28;20311;-57
2022/09/14 12:05:45;;;;;;;3.15;1.77;;;31.80;98.00;;;;;;5075108;28;20303;-55
2022/09/14 12:08:38;;;;;;;4.25;1.77;;;31.80;98.00;;;;;;5074923;28;20209;-56
2022/09/14 12:11:24;;;;;;;4.55;1.70;;;31.70;97.70;;;;;;5074848;28;20292;-56
2022/09/14 12:14:14;;;;;;;4.68;1.90;;;31.60;97.60;;;;;;5075616;28;20200;-57
2022/09/14 12:17:04;;;;;;;5.40;1.80;;;31.50;98.30;;;;;;5075172;28;20212;-58
2022/09/14 12:19:31;;;;;;;3.35;1.67;;;31.30;97.80;;;;;;5074134;28;20209;-57
2022/09/14 12:22:19;;;;;;;3.95;2.00;;;31.00;97.90;;;;;;5074887;28;20229;-55
2022/09/14 12:24:58;;;;;;;4.47;1.90;;;30.80;98.80;;;;;;5074799;28;20225;-55
2022/09/14 12:27:24;;;;;;;5.25;1.65;;;30.80;98.80;;;;;;5074543;28;20205;-55
2022/09/14 12:29:51;;;;;;;4.35;1.70;;;30.80;99.00;;;;;;5074665;28;20208;-56
2022/09/14 12:32:39;;;;;;;4.80;1.70;;;30.60;99.30;;;;;;5075015;28;20286;-56
2022/09/14 12:35:45;;;;;;;2.72;1.58;;;30.50;99.60;;;;;;5074726;28;20204;-55
2022/09/14 12:38:41;;;;;;;4.28;1.75;;;30.20;99.90;;;;;;5069173;28;20204;-55
2022/09/14 12:41:49;;;;;;;5.03;1.50;;;30.00;99.90;;;;;;5074537;28;20244;-56
2022/09/14 12:44:35;;;;;;;5.85;1.75;;;29.80;99.90;;;;;;5015433;28;20239;-56
2022/09/14 12:47:38;;;;;;;5.10;1.55;;;29.60;99.90;;;;;;5074489;28;20664;-55
2022/09/14 12:50:12;;;;;;;6.18;1.50;;;29.40;99.90;;;;;;5074275;28;20209;-56
2022/09/14 12:52:45;;;;;;;3.97;1.50;;;29.30;99.90;;;;;;5074338;28;20258;-57
2022/09/14 12:55:34;;;;;;;5.80;1.42;;;29.10;99.90;;;;;;5074689;28;20262;-58
2022/09/14 12:58:09;;;;;;;4.25;1.58;;;29.00;99.90;;;;;;5074644;28;20259;-56
2022/09/14 13:00:55;;;;;;;4.30;1.70;;;28.80;99.90;;;;;;5074508;28;20258;-55
2022/09/14 13:03:45;;;;;;;4.55;1.98;;;28.70;99.90;;;;;;5074018;28;20745;-56
2022/09/14 13:06:13;;;;;;;3.88;2.10;;;28.60;99.90;;;;;;5073707;28;20204;-55